• Join FlightAware (Why Join?)
  • Login
  • US Flag 
06:27AM EDT


 

Airport Tracker/Info


-or-


 

Live Flight TrackerFlight Track Log ✈ SWA127 ✈ 05-Apr-2013 ✈ KPIT - KMCO

Flight Track Log - Related Links

Times and Time Zones

All times are in EDT time to prevent confusion due to time zone crossing. See the SWA127 flight status page for this flight to view local times or setup timezone preferences in your user account.

Time Position Orientation Groundspeed Altitude Reporting Facility
EDT Latitude Longitude Course Direction KTS MPH feet Rate Location/Type
06:36AM 40.4775 -80.3347 186° South 155 178 4,100  Level Cleveland Center
06:37AM 40.3942 -80.3269 176° South 203 234 7,600 3,360 Climbing Cleveland Center
06:38AM 40.3169 -80.3189 175° South 247 284 10,900 2,940 Climbing Cleveland Center
06:39AM 40.2233 -80.3167 179° South 297 342 13,500 2,700 Climbing Cleveland Center
06:40AM 40.1272 -80.3117 178° South 333 383 16,400 2,700 Climbing Cleveland Center
06:41AM 39.9020 -80.2378 186° South  Level FlightAware Approximate
06:41AM 40.0211 -80.3067 178° South 363 418 19,000  Level Cleveland Center
06:43AM 39.8261 -80.2981 178° South 372 428 23,400 2,280 Climbing Washington Center
06:44AM 39.7136 -80.2936 178° South 386 444 25,500 1,260 Climbing Washington Center
06:45AM 39.5992 -80.2886 178° South 399 459 26,000 240 Climbing Washington Center
06:46AM 39.4850 -80.2814 177° South 412 474 26,000 840 Level Washington Center
06:47AM 39.3664 -80.2736 177° South 422 486 27,700 1,500 Climbing Washington Center
06:48AM 39.2475 -80.2739 180° South 422 486 29,000 600 Climbing Washington Center
06:49AM 39.1297 -80.3039 191° South 427 491 29,000 600 Level Washington Center
06:50AM 39.0114 -80.3417 194° South 432 497 30,200 2,040 Climbing Washington Center
06:51AM 38.9039 -80.3719 192° South 421 484 33,100 2,220 Climbing Washington Center
06:52AM 38.7983 -80.4025 193° South 402 463 34,700 1,440 Climbing Washington Center
06:53AM 38.7011 -80.4386 196° South 397 457 36,000 600 Climbing Washington Center
06:54AM 38.5828 -80.4708 192° South 403 464 36,000  Level Washington Center
06:55AM 38.4753 -80.5033 193° South 403 464 36,000  Level Washington Center
06:56AM 38.3675 -80.5361 193° South 403 464 36,000  Level Washington Center
06:57AM 38.2689 -80.5481 185° South 398 458 36,000  Level Washington Center
06:58AM 38.1639 -80.5650 187° South 398 458 36,000  Level Washington Center
06:59AM 38.0550 -80.5786 186° South 391 450 36,000  Level Washington Center
07:00AM 37.9481 -80.5400 164° South 385 443 36,000  Level Washington Center
07:01AM 37.8331 -80.4956 163° South 390 449 36,000  Level Washington Center
07:02AM 37.7250 -80.4886 177° South 390 449 36,000  Level Washington Center
07:04AM 37.5381 -80.5167 187° South 382 440 36,000  Level Atlanta Center
07:05AM 37.4239 -80.5347 187° South 388 447 36,000  Level Atlanta Center
07:06AM 37.3203 -80.5525 188° South 388 447 36,000  Level Atlanta Center
07:07AM 37.2186 -80.5647 185° South 388 447 36,000  Level Atlanta Center
07:08AM 37.1272 -80.5792 187° South 378 435 36,000  Level Atlanta Center
07:09AM 37.0256 -80.5942 187° South 378 435 36,000  Level Atlanta Center
07:10AM 36.9236 -80.6089 187° South 378 435 36,000  Level Atlanta Center
07:11AM 36.8242 -80.6261 188° South 371 427 36,000  Level Atlanta Center
07:12AM 36.7244 -80.6383 186° South 364 419 36,000  Level Atlanta Center
07:13AM 36.6267 -80.6503 186° South 364 419 36,000  Level Atlanta Center
07:14AM 36.5272 -80.6672 188° South 369 425 36,000  Level Atlanta Center
07:15AM 36.4294 -80.6842 188° South 364 419 36,000  Level Atlanta Center
07:16AM 36.3214 -80.6964 185° South 364 419 36,000  Level Atlanta Center
07:17AM 36.2239 -80.7133 188° South 364 419 36,000  Level Atlanta Center
07:18AM 36.1264 -80.7303 188° South 359 413 36,000  Level Atlanta Center
07:19AM 36.0264 -80.7419 185° South 359 413 36,000  Level Atlanta Center
07:20AM 35.9331 -80.7561 187° South 359 413 36,000  Level Atlanta Center
07:21AM 35.8353 -80.7703 187° South 353 406 36,000  Level Atlanta Center
07:22AM 35.7419 -80.7844 187° South 345 397 36,000  Level Atlanta Center
07:23AM 35.6567 -80.7978 187° South 345 397 36,000  Level Atlanta Center
07:24AM 35.5631 -80.8092 186° South 345 397 36,000  Level Atlanta Center
07:25AM 35.4717 -80.8231 187° South 345 397 36,000  Level Atlanta Center
07:26AM 35.3803 -80.8369 187° South 340 391 36,000  Level Atlanta Center
07:27AM 35.2825 -80.8533 188° South 333 383 36,000  Level Atlanta Center
07:28AM 35.1911 -80.8669 187° South 328 377 36,000  Level Atlanta Center
07:29AM 35.1017 -80.8806 187° South 334 384 36,000  Level Atlanta Center
07:31AM 34.8764 -80.9164 187° South 329 379 36,000  Level Jacksonville Center
07:32AM 34.7994 -80.9206 183° South 329 379 36,000  Level Jacksonville Center
07:33AM 34.7122 -80.9403 191° South 324 373 36,000  Level Jacksonville Center
07:34AM 34.6308 -80.9497 185° South 318 366 36,000  Level Jacksonville Center
07:35AM 34.5456 -80.9617 187° South 313 360 36,000  Level Jacksonville Center
07:36AM 34.4622 -80.9711 185° South 308 354 36,000  Level Jacksonville Center
07:37AM 34.3769 -80.9756 182° South 308 354 36,000  Level Jacksonville Center
07:38AM 34.2933 -80.9747 180° South 308 354 36,000  Level Jacksonville Center
07:39AM 34.2161 -80.9767 181° South 297 342 36,000  Level Jacksonville Center
07:40AM 34.1286 -80.9783 181° South 297 342 36,000  Level Jacksonville Center
07:41AM 34.0472 -80.9803 181° South 297 342 36,000  Level Jacksonville Center
07:42AM 33.9639 -80.9819 181° South 297 342 36,000  Level Jacksonville Center
07:43AM 33.8783 -80.9864 182° South 302 348 36,000  Level Jacksonville Center
07:44AM 33.7950 -80.9908 183° South 302 348 36,000  Level Jacksonville Center
07:45AM 33.7031 -80.9903 180° South 308 354 36,000  Level Jacksonville Center
07:46AM 33.6217 -80.9944 182° South 308 354 36,000  Level Jacksonville Center
07:47AM 33.5403 -80.9939 180° South 308 354 36,000  Level Jacksonville Center
07:48AM 33.4550 -81.0006 184° South 303 349 36,000  Level Jacksonville Center
07:49AM 33.3714 -81.0022 181° South 303 349 36,000  Level Jacksonville Center
07:50AM 33.2839 -81.0017 180° South 308 354 36,000  Level Jacksonville Center
07:51AM 33.1983 -81.0061 182° South 308 354 36,000  Level Jacksonville Center
07:52AM 33.1106 -81.0078 181° South 308 354 36,000  Level Jacksonville Center
07:53AM 33.0250 -81.0097 181° South 308 354 36,000  Level Jacksonville Center
07:54AM 32.9375 -81.0114 181° South 308 354 36,000  Level Jacksonville Center
07:55AM 32.8478 -81.0183 184° South 313 360 36,000 -60 Level Jacksonville Center
07:56AM 32.7603 -81.0200 181° South 313 360 35,900  Descending Jacksonville Center
07:57AM 32.6747 -81.0219 181° South 313 360 36,000  Climbing Jacksonville Center
07:58AM 32.5911 -81.0236 181° South 305 351 36,000  Level Jacksonville Center
07:59AM 32.5056 -81.0253 181° South 305 351 36,000  Level Jacksonville Center
08:00AM 32.4200 -81.0269 181° South 313 360 36,000  Level Jacksonville Center
08:01AM 32.3469 -81.0311 183° South 307 353 36,000  Level Jacksonville Center
08:02AM 32.2572 -81.0353 182° South 307 353 36,000  Level Jacksonville Center
08:03AM 32.1697 -81.0347 180° South 312 359 36,000  Level Jacksonville Center
08:04AM 32.0967 -81.0361 181° South 301 346 36,000  Level Jacksonville Center
08:05AM 32.0047 -81.0381 181° South 307 353 36,000  Level Jacksonville Center
08:06AM 31.9233 -81.0422 182° South 307 353 36,000  Level Jacksonville Center
08:07AM 31.8483 -81.0436 181° South 307 353 36,000  Level Jacksonville Center
08:08AM 31.7586 -81.0453 181° South 307 353 36,000  Level Jacksonville Center
08:09AM 31.6728 -81.0469 181° South 307 353 36,000  Level Jacksonville Center
08:10AM 31.5978 -81.0511 183° South 307 353 36,000  Level Jacksonville Center
08:11AM 31.5039 -81.0503 180° South 312 359 36,000  Level Jacksonville Center
08:12AM 31.4267 -81.0544 183° South 306 352 36,000  Level Jacksonville Center
08:13AM 31.3389 -81.0561 181° South 306 352 36,000  Level Jacksonville Center
08:14AM 31.2492 -81.0628 184° South 311 358 36,000  Level Jacksonville Center
08:15AM 31.1636 -81.0619 180° South 311 358 36,000  Level Jacksonville Center
08:16AM 31.0761 -81.0686 184° South 311 358 36,000  Level Jacksonville Center
08:17AM 30.9883 -81.0678 180° South 311 358 36,000  Level Jacksonville Center
08:18AM 30.9028 -81.0719 182° South 311 358 36,000  Level Jacksonville Center
08:19AM 30.8153 -81.0711 180° South 311 358 36,000 -120 Level Jacksonville Center
08:20AM 30.7275 -81.0753 182° South 311 358 35,800 -1,020 Descending Jacksonville Center
08:21AM 30.6294 -81.0772 181° South 311 358 34,000 -900 Descending Jacksonville Center
08:22AM 30.5397 -81.0811 182° South 316 364 34,000  Level Jacksonville Center
08:23AM 30.4500 -81.0831 181° South 321 369 34,000 -480 Level Jacksonville Center
08:24AM 30.3581 -81.0869 182° South 327 376 33,100 -1,020 Descending Jacksonville Center
08:25AM 30.2706 -81.0911 182° South 327 376 32,000 -1,080 Descending Jacksonville Center
08:26AM 30.1786 -81.0906 180° South 327 376 31,000 -960 Descending Jacksonville Center
08:27AM 30.0842 -81.0611 165° South 332 382 30,100 -900 Descending Jacksonville Center
08:28AM 29.9856 -81.0269 163° South 352 405 29,200 -960 Descending Jacksonville Center
08:29AM 29.8828 -80.9931 164° South 374 430 28,200 -1,020 Descending Jacksonville Center
08:30AM 29.7842 -80.9542 161° South 380 437 27,200 -1,440 Descending Jacksonville Center
08:31AM 29.6853 -80.9083 158° South 380 437 25,400 -1,380 Descending Jacksonville Center
08:32AM 29.5906 -80.8625 157° South 380 437 24,500 -900 Descending Jacksonville Center
08:33AM 29.4939 -80.8239 161° South 374 430 23,600 -960 Descending Jacksonville Center
08:34AM 29.4058 -80.7925 163° South 369 425 22,600 -1,560 Descending Jacksonville Center
08:35AM 29.3094 -80.7636 165° South 363 418 20,500 -2,100 Descending Jacksonville Center
08:36AM 29.2169 -80.7369 166° South 357 411 18,500 -2,040 Descending Jacksonville Center
08:37AM 29.1314 -80.7364 180° South 337 388 16,500 -1,860 Descending Jacksonville Center
08:38AM 29.0525 -80.7619 196° South 302 348 14,800 -1,800 Descending Jacksonville Center
08:39AM 29.0014 -80.8200 225° Southwest 277 319 13,000 -2,160 Descending Jacksonville Center
08:40AM 28.9500 -80.8833 227° Southwest 267 307 10,800 -1,560 Descending Orlando TRACON
08:41AM 28.9000 -80.9333 221° Southwest 272 313 10,100 -420 Descending Orlando TRACON
08:42AM 28.8500 -81.0000 229° Southwest 268 308 10,000 -900 Descending Orlando TRACON
08:43AM 28.8000 -81.0667 229° Southwest 270 311 8,300 -1,620 Descending Orlando TRACON
08:44AM 28.7500 -81.1500 236° Southwest 260 299 6,700 -1,500 Descending Orlando TRACON
08:45AM 28.7000 -81.2000 221° Southwest 265 305 5,300 -1,320 Descending Orlando TRACON
08:46AM 28.6500 -81.2500 221° Southwest 247 284 4,300 -900 Descending Orlando TRACON
08:47AM 28.6000 -81.2833 210° Southwest 198 228 3,500 -900 Descending Orlando TRACON
08:48AM 28.5667 -81.3167 221° Southwest 173 199 2,700 -660 Descending Orlando TRACON
08:49AM 28.5167 -81.3333 196° South 150 173 2,200 -900 Descending Orlando TRACON
08:50AM 28.4833 -81.3333 180° South 125 144 800 -1,320 Descending Orlando TRACON
08:52AM 28.4294 -81.3090 139° Southeast  Level Estimated
08:59AM 28.4294 -81.3090 336° Northwest  Level Estimated
09:00AM 28.4294 -81.3090 336° Northwest  Level Estimated
09:01AM 28.4294 -81.3090 336° Northwest  Level Estimated
09:02AM 28.4294 -81.3090 336° Northwest  Level Estimated